Time;durP1;ratioP1;P1;durP2;ratioP2;P2;SDS_P1;SDS_P2;PMS_P1;PMS_P2;Temp;Humidity;BMP_temperature;BMP_pressure;BME280_temperature;BME280_humidity;BME280_pressure;Samples;Min_cycle;Max_cycle;Signal;HPM_P1;HPM_P2
2023/05/12 00:02:04;;;;;;;;;3.00;3.00;;;;;;;;5029777;28;9145;-76
2023/05/12 00:04:31;;;;;;;;;3.00;3.00;;;;;;;;5035143;28;9382;-76
2023/05/12 00:06:59;;;;;;;;;2.00;2.00;;;;;;;;5029863;28;9344;-79
2023/05/12 00:09:27;;;;;;;;;3.00;3.00;;;;;;;;5029598;28;9263;-79
2023/05/12 00:11:54;;;;;;;;;2.33;2.33;;;;;;;;5028958;28;9263;-79
2023/05/12 00:14:22;;;;;;;;;1.67;1.67;;;;;;;;5026543;28;10022;-77
2023/05/12 00:16:50;;;;;;;;;3.33;3.33;;;;;;;;5028994;28;9344;-79
2023/05/12 00:19:18;;;;;;;;;4.00;2.33;;;;;;;;5029043;28;9342;-79
2023/05/12 00:21:45;;;;;;;;;3.33;3.33;;;;;;;;5029034;28;9320;-77
2023/05/12 00:24:12;;;;;;;;;5.67;4.00;;;;;;;;5028647;28;9405;-76
2023/05/12 00:26:40;;;;;;;;;3.33;3.00;;;;;;;;5029344;28;9268;-77
2023/05/12 00:29:08;;;;;;;;;2.33;2.33;;;;;;;;5029038;28;9322;-78
2023/05/12 00:31:35;;;;;;;;;2.67;2.67;;;;;;;;5034350;28;9362;-78
2023/05/12 00:34:02;;;;;;;;;5.00;5.00;;;;;;;;5028987;28;9327;-76
2023/05/12 00:36:29;;;;;;;;;2.00;2.00;;;;;;;;5028766;28;9248;-78
2023/05/12 00:38:58;;;;;;;;;3.00;2.67;;;;;;;;5028830;28;9264;-77
2023/05/12 00:41:25;;;;;;;;;6.00;4.00;;;;;;;;5028637;28;9328;-77
2023/05/12 00:43:54;;;;;;;;;3.67;3.67;;;;;;;;5028935;28;9420;-77
2023/05/12 00:46:21;;;;;;;;;3.00;3.00;;;;;;;;5017503;28;9336;-76
2023/05/12 00:48:49;;;;;;;;;1.67;1.67;;;;;;;;5040724;28;9497;-76
2023/05/12 00:51:16;;;;;;;;;3.67;3.00;;;;;;;;5027377;28;9414;-77
2023/05/12 00:53:44;;;;;;;;;4.25;4.25;;;;;;;;5028843;28;10177;-77
2023/05/12 00:56:12;;;;;;;;;3.00;3.00;;;;;;;;5028193;28;9562;-77
2023/05/12 00:58:40;;;;;;;;;3.00;3.00;;;;;;;;5028750;28;9351;-79
2023/05/12 01:01:08;;;;;;;;;5.00;3.00;;;;;;;;5028139;28;9234;-78
2023/05/12 01:03:36;;;;;;;;;3.00;3.00;;;;;;;;5030746;28;9342;-76
2023/05/12 01:06:12;;;;;;;;;4.00;4.00;;;;;;;;5028170;28;9403;-75
2023/05/12 01:08:40;;;;;;;;;3.00;3.00;;;;;;;;5028839;28;9326;-76
2023/05/12 01:11:07;;;;;;;;;4.00;4.00;;;;;;;;5028331;28;9397;-76
2023/05/12 01:13:34;;;;;;;;;4.00;3.00;;;;;;;;5028558;28;9387;-76
2023/05/12 01:16:03;;;;;;;;;3.50;3.50;;;;;;;;5028280;28;9538;-75
2023/05/12 01:18:33;;;;;;;;;4.00;4.00;;;;;;;;5028577;28;9417;-78
2023/05/12 01:21:01;;;;;;;;;4.67;3.00;;;;;;;;5027831;28;9442;-77
2023/05/12 01:23:36;;;;;;;;;4.25;4.25;;;;;;;;5028479;28;9417;-76
2023/05/12 01:26:07;;;;;;;;;2.00;2.00;;;;;;;;5027778;28;9429;-75
2023/05/12 01:28:34;;;;;;;;;2.00;2.00;;;;;;;;5028202;28;9488;-75
2023/05/12 01:31:01;;;;;;;;;3.50;3.50;;;;;;;;5025820;28;9462;-75
2023/05/12 01:33:29;;;;;;;;;6.50;5.00;;;;;;;;5027753;28;9651;-75
2023/05/12 01:35:56;;;;;;;;;3.75;3.75;;;;;;;;5028236;28;9609;-75
2023/05/12 01:38:23;;;;;;;;;8.50;7.00;;;;;;;;5028127;28;9623;-75
2023/05/12 01:40:50;;;;;;;;;6.00;6.00;;;;;;;;5028344;28;9952;-75
2023/05/12 01:43:19;;;;;;;;;3.00;3.00;;;;;;;;5028078;28;9795;-75
2023/05/12 01:45:46;;;;;;;;;4.00;3.00;;;;;;;;5028345;28;9795;-75
2023/05/12 01:48:14;;;;;;;;;3.25;3.25;;;;;;;;5028679;28;9633;-75
2023/05/12 01:50:42;;;;;;;;;4.00;4.00;;;;;;;;5029410;28;9803;-76
2023/05/12 01:53:10;;;;;;;;;5.75;4.00;;;;;;;;5029146;28;9751;-75
2023/05/12 01:55:37;;;;;;;;;4.00;4.00;;;;;;;;5029109;28;9882;-78
2023/05/12 01:58:04;;;;;;;;;3.75;3.50;;;;;;;;5028120;28;9706;-76
2023/05/12 02:00:33;;;;;;;;;6.75;3.25;;;;;;;;5027744;28;9711;-77
2023/05/12 02:03:00;;;;;;;;;5.25;3.00;;;;;;;;5034591;28;9698;-78
2023/05/12 02:05:27;;;;;;;;;3.00;3.00;;;;;;;;5031786;28;9607;-78
2023/05/12 02:07:54;;;;;;;;;3.25;3.25;;;;;;;;5031610;28;9855;-78
2023/05/12 02:10:22;;;;;;;;;3.50;3.00;;;;;;;;5031343;28;9945;-77
2023/05/12 02:12:49;;;;;;;;;5.00;3.25;;;;;;;;5031450;28;9876;-78
2023/05/12 02:15:16;;;;;;;;;3.75;2.00;;;;;;;;5031490;28;9712;-78
2023/05/12 02:17:45;;;;;;;;;5.50;3.00;;;;;;;;5031844;28;9872;-77
2023/05/12 02:20:12;;;;;;;;;5.00;3.50;;;;;;;;5031361;28;9952;-73
2023/05/12 02:22:39;;;;;;;;;5.00;5.00;;;;;;;;5036441;28;9926;-75
2023/05/12 02:25:07;;;;;;;;;4.75;4.00;;;;;;;;5038905;28;10834;-76
2023/05/12 02:27:35;;;;;;;;;3.00;3.00;;;;;;;;5030978;28;9982;-75
2023/05/12 02:30:03;;;;;;;;;3.75;3.75;;;;;;;;5031448;28;10089;-75
2023/05/12 02:32:30;;;;;;;;;3.75;3.00;;;;;;;;5030798;28;10044;-76
2023/05/12 02:34:59;;;;;;;;;6.50;4.00;;;;;;;;5031173;28;10030;-75
2023/05/12 02:37:26;;;;;;;;;6.75;4.00;;;;;;;;5030585;28;9964;-75
2023/05/12 02:39:53;;;;;;;;;3.00;3.00;;;;;;;;5031252;28;10064;-78
2023/05/12 02:42:20;;;;;;;;;4.00;4.00;;;;;;;;5031250;28;10038;-76
2023/05/12 02:44:47;;;;;;;;;4.00;4.00;;;;;;;;5030941;28;10139;-75
2023/05/12 02:47:14;;;;;;;;;6.25;4.25;;;;;;;;5030804;28;10192;-77
2023/05/12 02:49:42;;;;;;;;;3.50;2.75;;;;;;;;5031053;28;10211;-76
2023/05/12 02:52:11;;;;;;;;;2.50;2.00;;;;;;;;5031263;28;10115;-77
2023/05/12 02:54:39;;;;;;;;;3.00;3.00;;;;;;;;5030751;28;10180;-78
2023/05/12 02:57:07;;;;;;;;;3.25;3.25;;;;;;;;5038980;28;10010;-77
2023/05/12 02:59:34;;;;;;;;;3.50;2.75;;;;;;;;5032170;28;10274;-76
2023/05/12 03:02:01;;;;;;;;;3.25;3.25;;;;;;;;5030294;28;9950;-78
2023/05/12 03:04:29;;;;;;;;;4.75;4.25;;;;;;;;5030508;28;10102;-78
2023/05/12 03:06:57;;;;;;;;;3.75;2.25;;;;;;;;5030893;28;10025;-78
2023/05/12 03:09:26;;;;;;;;;3.25;3.25;;;;;;;;5030214;28;10027;-79
2023/05/12 03:11:53;;;;;;;;;3.00;3.00;;;;;;;;5030827;28;10153;-78
2023/05/12 03:14:20;;;;;;;;;5.25;5.00;;;;;;;;5029493;28;10017;-78
2023/05/12 03:16:47;;;;;;;;;3.75;3.50;;;;;;;;5029998;28;10111;-77
2023/05/12 03:19:14;;;;;;;;;4.00;3.00;;;;;;;;5030941;28;9947;-76
2023/05/12 03:21:42;;;;;;;;;4.75;3.00;;;;;;;;5030375;28;10033;-76
2023/05/12 03:24:09;;;;;;;;;5.50;4.25;;;;;;;;5030149;28;10057;-74
2023/05/12 03:26:38;;;;;;;;;5.75;3.00;;;;;;;;5030333;28;9962;-75
2023/05/12 03:29:05;;;;;;;;;3.50;2.00;;;;;;;;5030146;28;10729;-78
2023/05/12 03:31:32;;;;;;;;;3.75;2.00;;;;;;;;5029686;28;9895;-75
2023/05/12 03:33:59;;;;;;;;;4.25;2.75;;;;;;;;5030033;28;10158;-75
2023/05/12 03:36:29;;;;;;;;;4.50;2.00;;;;;;;;5030712;28;10138;-75
2023/05/12 03:38:56;;;;;;;;;2.00;2.00;;;;;;;;5031180;28;9943;-75
2023/05/12 03:41:23;;;;;;;;;5.00;3.00;;;;;;;;5031414;28;10175;-75
2023/05/12 03:43:52;;;;;;;;;4.00;2.75;;;;;;;;5031257;28;10180;-75
2023/05/12 03:46:19;;;;;;;;;4.25;4.25;;;;;;;;5030868;28;9855;-78
2023/05/12 03:48:46;;;;;;;;;1.00;1.00;;;;;;;;5036203;28;10054;-79
2023/05/12 03:51:14;;;;;;;;;3.25;3.25;;;;;;;;5030028;28;10071;-79
2023/05/12 03:53:44;;;;;;;;;3.50;3.00;;;;;;;;5029134;28;9962;-79
2023/05/12 03:56:15;;;;;;;;;5.50;2.75;;;;;;;;5029479;28;10324;-79
2023/05/12 03:58:45;;;;;;;;;2.25;2.25;;;;;;;;5029317;28;10111;-80
2023/05/12 04:01:13;;;;;;;;;2.00;1.00;;;;;;;;5029269;28;10115;-79
2023/05/12 04:03:41;;;;;;;;;2.25;1.00;;;;;;;;5031450;28;9939;-79
2023/05/12 04:06:08;;;;;;;;;1.75;1.75;;;;;;;;5032453;28;10072;-79
2023/05/12 04:08:35;;;;;;;;;1.75;1.75;;;;;;;;5028970;28;10216;-79
2023/05/12 04:11:03;;;;;;;;;1.00;1.00;;;;;;;;5029035;28;10141;-80
2023/05/12 04:13:31;;;;;;;;;2.75;2.00;;;;;;;;5028573;28;9957;-79
2023/05/12 04:16:00;;;;;;;;;2.00;2.00;;;;;;;;5028539;28;10103;-79
2023/05/12 04:18:29;;;;;;;;;5.00;2.00;;;;;;;;5028540;28;10861;-79
2023/05/12 04:20:57;;;;;;;;;3.75;2.50;;;;;;;;5028101;28;9970;-79
2023/05/12 04:23:24;;;;;;;;;1.25;1.25;;;;;;;;5028865;28;10897;-79
2023/05/12 04:25:51;;;;;;;;;1.25;1.25;;;;;;;;5027881;28;10769;-79
2023/05/12 04:28:18;;;;;;;;;2.00;2.00;;;;;;;;5029370;28;9940;-79
2023/05/12 04:30:46;;;;;;;;;2.75;2.75;;;;;;;;5027187;28;10170;-79
2023/05/12 04:33:15;;;;;;;;;4.00;2.00;;;;;;;;5029220;28;9994;-79
2023/05/12 04:35:47;;;;;;;;;3.00;3.00;;;;;;;;5027837;28;10121;-82
2023/05/12 04:38:14;;;;;;;;;2.00;2.00;;;;;;;;5028674;28;10811;-80
2023/05/12 04:40:41;;;;;;;;;2.25;1.00;;;;;;;;5028175;28;10134;-80
2023/05/12 04:43:08;;;;;;;;;1.00;1.00;;;;;;;;5028294;28;9962;-78
2023/05/12 04:45:36;;;;;;;;;3.00;1.00;;;;;;;;5027781;28;9873;-80
2023/05/12 04:48:03;;;;;;;;;3.00;3.00;;;;;;;;5028129;28;10063;-81
2023/05/12 04:50:30;;;;;;;;;2.50;2.00;;;;;;;;5028141;28;9939;-78
2023/05/12 04:52:58;;;;;;;;;3.00;3.00;;;;;;;;5028077;28;9885;-80
2023/05/12 04:55:26;;;;;;;;;2.00;2.00;;;;;;;;5028097;28;9953;-80
2023/05/12 04:57:53;;;;;;;;;1.75;1.75;;;;;;;;5027876;28;9936;-80
2023/05/12 05:00:20;;;;;;;;;2.00;2.00;;;;;;;;5029456;28;9797;-79
2023/05/12 05:02:48;;;;;;;;;2.00;2.00;;;;;;;;5032212;28;9925;-82
2023/05/12 05:05:15;;;;;;;;;2.00;2.00;;;;;;;;5027927;28;9851;-81
2023/05/12 05:07:42;;;;;;;;;4.00;4.00;;;;;;;;5027871;28;10052;-81
2023/05/12 05:10:11;;;;;;;;;2.75;1.50;;;;;;;;5027292;28;9925;-81
2023/05/12 05:12:38;;;;;;;;;2.25;2.25;;;;;;;;5028062;28;10045;-81
2023/05/12 05:15:08;;;;;;;;;2.00;2.00;;;;;;;;5027541;28;10052;-81
2023/05/12 05:17:35;;;;;;;;;3.25;3.00;;;;;;;;5027594;28;9944;-82
2023/05/12 05:20:03;;;;;;;;;3.00;3.00;;;;;;;;5027691;28;10123;-81
2023/05/12 05:22:30;;;;;;;;;3.00;2.25;;;;;;;;5028055;28;9968;-81
2023/05/12 05:25:00;;;;;;;;;2.00;2.00;;;;;;;;5028306;28;9974;-81
2023/05/12 05:27:28;;;;;;;;;5.00;3.25;;;;;;;;5028951;28;10223;-81
2023/05/12 05:29:56;;;;;;;;;3.75;3.25;;;;;;;;5029117;28;9943;-81
2023/05/12 05:32:23;;;;;;;;;3.50;3.50;;;;;;;;5028276;28;9912;-81
2023/05/12 05:34:51;;;;;;;;;3.25;3.25;;;;;;;;5027953;28;10033;-81
2023/05/12 05:37:21;;;;;;;;;4.00;4.00;;;;;;;;5027234;28;10042;-81
2023/05/12 05:39:48;;;;;;;;;5.75;5.75;;;;;;;;5027784;28;10061;-80
2023/05/12 05:42:15;;;;;;;;;5.00;5.00;;;;;;;;5027710;28;10128;-82
2023/05/12 05:44:44;;;;;;;;;9.00;9.00;;;;;;;;5027541;28;10134;-81
2023/05/12 05:47:11;;;;;;;;;6.00;6.00;;;;;;;;5027250;28;10115;-76
2023/05/12 05:49:38;;;;;;;;;9.75;5.00;;;;;;;;5026597;28;10029;-79
2023/05/12 05:52:06;;;;;;;;;8.00;8.00;;;;;;;;5026770;28;10081;-80
2023/05/12 05:54:33;;;;;;;;;12.25;8.00;;;;;;;;5026273;28;10050;-80
2023/05/12 05:57:01;;;;;;;;;6.75;6.75;;;;;;;;5026761;28;9990;-80
2023/05/12 05:59:29;;;;;;;;;7.00;7.00;;;;;;;;5026389;28;9943;-80
2023/05/12 06:01:57;;;;;;;;;8.00;7.75;;;;;;;;5026293;28;9851;-80
2023/05/12 06:04:25;;;;;;;;;9.25;5.50;;;;;;;;5028786;28;9971;-80
2023/05/12 06:06:52;;;;;;;;;12.00;8.00;;;;;;;;5026656;28;10026;-80
2023/05/12 06:09:19;;;;;;;;;18.25;11.25;;;;;;;;5026815;28;9946;-81
2023/05/12 06:11:47;;;;;;;;;8.00;8.00;;;;;;;;5025955;28;10087;-81
2023/05/12 06:14:14;;;;;;;;;11.25;9.25;;;;;;;;5027655;28;9877;-80
2023/05/12 06:16:41;;;;;;;;;11.25;11.25;;;;;;;;5027435;28;9957;-81
2023/05/12 06:19:10;;;;;;;;;8.25;8.00;;;;;;;;5030958;28;9981;-80
2023/05/12 06:21:37;;;;;;;;;8.50;6.75;;;;;;;;5027791;28;9935;-82
2023/05/12 06:24:05;;;;;;;;;9.25;8.00;;;;;;;;5026413;28;9926;-82
2023/05/12 06:26:32;;;;;;;;;8.00;8.00;;;;;;;;5026956;28;9806;-82
2023/05/12 06:28:59;;;;;;;;;11.75;11.75;;;;;;;;5026413;28;9781;-83
2023/05/12 06:31:27;;;;;;;;;13.25;13.25;;;;;;;;5026074;28;9828;-80
2023/05/12 06:33:54;;;;;;;;;12.50;12.50;;;;;;;;5025627;28;10013;-79
2023/05/12 06:36:22;;;;;;;;;15.00;13.00;;;;;;;;5026505;28;9889;-79
2023/05/12 06:38:51;;;;;;;;;16.50;14.50;;;;;;;;5025855;28;9890;-79
2023/05/12 06:41:18;;;;;;;;;16.25;14.75;;;;;;;;5026911;28;10000;-80
2023/05/12 06:43:45;;;;;;;;;15.50;14.00;;;;;;;;5026392;28;10043;-79
2023/05/12 06:46:13;;;;;;;;;21.75;19.50;;;;;;;;5027163;28;9743;-79
2023/05/12 06:48:40;;;;;;;;;18.00;14.50;;;;;;;;5026958;28;9956;-78
2023/05/12 06:51:08;;;;;;;;;24.50;22.75;;;;;;;;5029832;28;10664;-81
2023/05/12 06:53:37;;;;;;;;;22.50;20.00;;;;;;;;5040023;28;10148;-80
2023/05/12 06:56:04;;;;;;;;;22.50;20.75;;;;;;;;5029804;28;10121;-78
2023/05/12 06:58:32;;;;;;;;;26.75;24.25;;;;;;;;5029296;28;10851;-79
2023/05/12 07:00:59;;;;;;;;;30.75;29.75;;;;;;;;5028515;28;10159;-78
2023/05/12 07:03:26;;;;;;;;;32.00;26.75;;;;;;;;5020554;28;10283;-79
2023/05/12 07:05:53;;;;;;;;;25.00;19.50;;;;;;;;5029552;28;10212;-78
2023/05/12 07:08:21;;;;;;;;;23.25;23.25;;;;;;;;5029961;28;10043;-79
2023/05/12 07:10:49;;;;;;;;;29.00;26.25;;;;;;;;5029259;28;9954;-78
2023/05/12 07:13:16;;;;;;;;;32.25;31.75;;;;;;;;5031074;28;10844;-78
2023/05/12 07:15:44;;;;;;;;;38.75;32.00;;;;;;;;5030953;28;10219;-79
2023/05/12 07:18:11;;;;;;;;;38.00;33.00;;;;;;;;5031989;28;10689;-79
2023/05/12 07:20:38;;;;;;;;;36.00;32.00;;;;;;;;5029487;28;10526;-79
2023/05/12 07:23:05;;;;;;;;;31.25;27.75;;;;;;;;5028933;28;10373;-78
2023/05/12 07:25:33;;;;;;;;;29.75;28.25;;;;;;;;5028981;28;10225;-78
2023/05/12 07:28:02;;;;;;;;;22.25;21.75;;;;;;;;5028790;28;10720;-79
2023/05/12 07:30:29;;;;;;;;;32.50;30.50;;;;;;;;5028475;28;10073;-78
2023/05/12 07:32:56;;;;;;;;;27.50;26.00;;;;;;;;5028146;28;11028;-78
2023/05/12 07:35:23;;;;;;;;;27.00;23.00;;;;;;;;5028815;28;10105;-78
2023/05/12 07:37:50;;;;;;;;;30.00;29.25;;;;;;;;5028751;28;10045;-78
2023/05/12 07:40:18;;;;;;;;;31.00;28.25;;;;;;;;5028514;28;9988;-78
2023/05/12 07:42:45;;;;;;;;;28.50;25.00;;;;;;;;5028641;28;10165;-78
2023/05/12 07:45:21;;;;;;;;;20.75;19.75;;;;;;;;5028607;28;10194;-78
2023/05/12 07:47:49;;;;;;;;;30.25;28.50;;;;;;;;5028259;28;10049;-78
2023/05/12 07:50:16;;;;;;;;;24.50;21.75;;;;;;;;5029051;28;10145;-78
2023/05/12 07:52:47;;;;;;;;;28.50;27.00;;;;;;;;5028291;28;9971;-78
2023/05/12 07:55:15;;;;;;;;;33.25;30.75;;;;;;;;5028796;28;10695;-78
2023/05/12 07:57:42;;;;;;;;;48.00;37.75;;;;;;;;5028113;28;10243;-79
2023/05/12 08:00:11;;;;;;;;;37.50;32.00;;;;;;;;5027416;28;10563;-79
2023/05/12 08:02:40;;;;;;;;;36.00;30.25;;;;;;;;5031719;28;10252;-79
2023/05/12 08:05:09;;;;;;;;;28.50;25.50;;;;;;;;5021130;28;10234;-79
2023/05/12 08:07:37;;;;;;;;;26.75;26.75;;;;;;;;5028453;28;10215;-78
2023/05/12 08:10:05;;;;;;;;;32.50;28.75;;;;;;;;5027656;28;10009;-78
2023/05/12 08:12:32;;;;;;;;;30.75;29.25;;;;;;;;5027519;28;10255;-78
2023/05/12 08:14:59;;;;;;;;;27.25;23.75;;;;;;;;5027566;28;10372;-78
2023/05/12 08:17:27;;;;;;;;;24.00;24.00;;;;;;;;5028097;28;10299;-78
2023/05/12 08:19:55;;;;;;;;;28.00;27.25;;;;;;;;5027721;28;10084;-78
2023/05/12 08:22:23;;;;;;;;;27.50;22.00;;;;;;;;5028106;28;10145;-89
2023/05/12 08:24:51;;;;;;;;;22.50;22.50;;;;;;;;5027881;28;10056;-77
2023/05/12 08:27:18;;;;;;;;;24.00;19.25;;;;;;;;5027592;28;10027;-75
2023/05/12 08:29:45;;;;;;;;;26.50;24.50;;;;;;;;5028097;28;9775;-76
2023/05/12 08:32:13;;;;;;;;;26.25;23.75;;;;;;;;5027188;28;9843;-77
2023/05/12 08:34:41;;;;;;;;;29.75;25.75;;;;;;;;5027526;28;9617;-75
2023/05/12 08:37:09;;;;;;;;;21.50;21.50;;;;;;;;5027721;28;9636;-76
2023/05/12 08:39:37;;;;;;;;;20.00;19.50;;;;;;;;5027937;28;9524;-75
2023/05/12 08:42:12;;;;;;;;;22.33;16.67;;;;;;;;5027428;28;9464;-76
2023/05/12 08:44:39;;;;;;;;;24.00;21.50;;;;;;;;5027640;28;9566;-75
2023/05/12 08:47:07;;;;;;;;;21.33;16.67;;;;;;;;5027516;28;9529;-75
2023/05/12 08:49:37;;;;;;;;;17.67;17.67;;;;;;;;5027781;28;9403;-75
2023/05/12 08:52:05;;;;;;;;;16.00;14.33;;;;;;;;5027540;28;9257;-75
2023/05/12 08:54:35;;;;;;;;;13.33;13.33;;;;;;;;5027744;28;9251;-76
2023/05/12 08:57:05;;;;;;;;;11.67;11.67;;;;;;;;5027511;28;9253;-76
2023/05/12 08:59:33;;;;;;;;;19.00;14.00;;;;;;;;5027591;28;9204;-76
2023/05/12 09:02:03;;;;;;;;;18.33;15.67;;;;;;;;5027603;28;9309;-75
2023/05/12 09:04:31;;;;;;;;;18.00;16.33;;;;;;;;5030900;28;9147;-76
2023/05/12 09:06:59;;;;;;;;;16.67;16.67;;;;;;;;5028895;28;9017;-77
2023/05/12 09:09:28;;;;;;;;;19.00;15.50;;;;;;;;5028268;28;8967;-75
2023/05/12 09:11:58;;;;;;;;;12.75;9.75;;;;;;;;5026776;28;8850;-76
2023/05/12 09:14:26;;;;;;;;;16.75;11.00;;;;;;;;5027564;28;8859;-76
2023/05/12 09:16:59;;;;;;;;;13.00;13.00;;;;;;;;5026705;28;9647;-76
2023/05/12 09:19:26;;;;;;;;;12.25;12.25;;;;;;;;5027820;28;8876;-76
2023/05/12 09:21:54;;;;;;;;;11.75;11.00;;;;;;;;5027629;28;8974;-76
2023/05/12 09:24:21;;;;;;;;;12.50;12.50;;;;;;;;5026935;28;8965;-76
2023/05/12 09:26:50;;;;;;;;;24.00;23.00;;;;;;;;5027801;28;8854;-76
2023/05/12 09:29:19;;;;;;;;;14.25;14.25;;;;;;;;5027210;28;8948;-76
2023/05/12 09:31:53;;;;;;;;;14.25;12.00;;;;;;;;5026628;28;8796;-76
2023/05/12 09:34:27;;;;;;;;;14.50;13.00;;;;;;;;5015659;28;8848;-76
2023/05/12 09:36:58;;;;;;;;;20.50;17.50;;;;;;;;5027043;28;8855;-76
2023/05/12 09:39:25;;;;;;;;;13.25;13.25;;;;;;;;5027685;28;8882;-76
2023/05/12 09:41:53;;;;;;;;;11.50;11.00;;;;;;;;5027015;28;8856;-76
2023/05/12 09:44:22;;;;;;;;;14.00;13.00;;;;;;;;5027707;28;8851;-76
2023/05/12 09:46:50;;;;;;;;;14.00;11.00;;;;;;;;5026938;28;8860;-76
2023/05/12 09:49:20;;;;;;;;;13.75;13.25;;;;;;;;5027720;28;8832;-76
2023/05/12 09:51:51;;;;;;;;;17.25;15.50;;;;;;;;5027205;28;8845;-76
2023/05/12 09:54:25;;;;;;;;;15.00;15.00;;;;;;;;5028002;28;8857;-76
2023/05/12 09:56:53;;;;;;;;;13.00;11.75;;;;;;;;5027078;28;8852;-76
2023/05/12 09:59:25;;;;;;;;;22.50;20.25;;;;;;;;5026843;28;8864;-76
2023/05/12 10:01:53;;;;;;;;;24.00;20.00;;;;;;;;5026347;28;9539;-76
2023/05/12 10:04:21;;;;;;;;;12.75;11.50;;;;;;;;5029465;28;8865;-75
2023/05/12 10:06:49;;;;;;;;;16.25;14.00;;;;;;;;5027386;28;8891;-75
2023/05/12 10:09:20;;;;;;;;;11.50;10.00;;;;;;;;5026994;28;8854;-76
2023/05/12 10:11:48;;;;;;;;;7.75;7.75;;;;;;;;5027096;28;8866;-76
2023/05/12 10:14:15;;;;;;;;;10.25;10.25;;;;;;;;5027094;28;8880;-76
2023/05/12 10:16:45;;;;;;;;;10.75;10.25;;;;;;;;5027047;28;9653;-76
2023/05/12 10:19:14;;;;;;;;;10.00;10.00;;;;;;;;5024446;28;8854;-76
2023/05/12 10:21:44;;;;;;;;;8.50;8.50;;;;;;;;5026568;28;8864;-76
2023/05/12 10:24:12;;;;;;;;;14.25;12.00;;;;;;;;5030837;28;8848;-77
2023/05/12 10:26:40;;;;;;;;;8.75;8.75;;;;;;;;5031325;28;9613;-77
2023/05/12 10:29:07;;;;;;;;;7.50;7.00;;;;;;;;5030600;28;8881;-77
2023/05/12 10:31:35;;;;;;;;;5.25;5.25;;;;;;;;5030224;28;8826;-77
2023/05/12 10:34:05;;;;;;;;;7.25;6.25;;;;;;;;5030549;28;8887;-77
2023/05/12 10:36:42;;;;;;;;;4.00;4.00;;;;;;;;5031118;28;8864;-77
2023/05/12 10:39:10;;;;;;;;;4.75;4.75;;;;;;;;5019150;28;8852;-77
2023/05/12 10:41:37;;;;;;;;;5.75;4.00;;;;;;;;5030665;28;8864;-77
2023/05/12 10:44:05;;;;;;;;;6.50;6.50;;;;;;;;5030678;28;9790;-78
2023/05/12 10:46:32;;;;;;;;;4.75;4.00;;;;;;;;5030531;28;8859;-76
2023/05/12 10:49:03;;;;;;;;;2.75;2.75;;;;;;;;5031042;28;8992;-78
2023/05/12 10:51:31;;;;;;;;;4.25;4.25;;;;;;;;5032123;28;8939;-77
2023/05/12 10:54:00;;;;;;;;;5.00;5.00;;;;;;;;5031953;28;8897;-78
2023/05/12 10:56:29;;;;;;;;;3.00;3.00;;;;;;;;5031443;28;8855;-78
2023/05/12 10:59:13;;;;;;;;;2.75;2.75;;;;;;;;5030696;28;9782;-76
2023/05/12 11:01:41;;;;;;;;;5.50;4.50;;;;;;;;5030005;28;8871;-76
2023/05/12 11:04:13;;;;;;;;;5.25;5.25;;;;;;;;5033135;28;8990;-77
2023/05/12 11:06:42;;;;;;;;;5.00;4.75;;;;;;;;5028830;28;8917;-76
2023/05/12 11:09:10;;;;;;;;;5.00;5.00;;;;;;;;5030091;28;9028;-77
2023/05/12 11:11:37;;;;;;;;;3.00;3.00;;;;;;;;5029948;28;8837;-77
2023/05/12 11:14:05;;;;;;;;;3.00;2.25;;;;;;;;5029786;28;8885;-77
2023/05/12 11:16:32;;;;;;;;;3.00;3.00;;;;;;;;5030079;28;8864;-77
2023/05/12 11:19:03;;;;;;;;;5.25;4.00;;;;;;;;5029071;28;8888;-77
2023/05/12 11:21:32;;;;;;;;;2.50;2.50;;;;;;;;5029418;28;8860;-76
2023/05/12 11:24:00;;;;;;;;;5.25;4.00;;;;;;;;5029268;28;8988;-77
2023/05/12 11:26:27;;;;;;;;;3.00;3.00;;;;;;;;5029661;28;8990;-76
2023/05/12 11:28:54;;;;;;;;;4.00;4.00;;;;;;;;5028767;28;8894;-77
2023/05/12 11:31:22;;;;;;;;;4.25;3.75;;;;;;;;5028645;28;8804;-77
2023/05/12 11:33:50;;;;;;;;;2.75;2.75;;;;;;;;5028105;28;8868;-76
2023/05/12 11:36:19;;;;;;;;;4.00;4.00;;;;;;;;5029588;28;8852;-76
2023/05/12 11:38:53;;;;;;;;;2.00;2.00;;;;;;;;5028971;28;8991;-76
2023/05/12 11:41:25;;;;;;;;;1.50;1.50;;;;;;;;5029292;28;9663;-77
2023/05/12 11:43:52;;;;;;;;;1.25;1.25;;;;;;;;5028416;28;8848;-77
2023/05/12 11:46:26;;;;;;;;;0.25;0.25;;;;;;;;5029462;28;8994;-77
2023/05/12 11:48:57;;;;;;;;;2.00;2.00;;;;;;;;5028722;28;8864;-77
2023/05/12 11:51:24;;;;;;;;;2.75;2.75;;;;;;;;5028333;28;8840;-77
2023/05/12 11:53:54;;;;;;;;;1.00;1.00;;;;;;;;5028620;28;8885;-75
2023/05/12 11:56:22;;;;;;;;;1.25;1.25;;;;;;;;5028779;28;8869;-78
2023/05/12 11:58:54;;;;;;;;;1.75;1.75;;;;;;;;5028582;28;8856;-77
2023/05/12 12:01:21;;;;;;;;;4.00;2.50;;;;;;;;5028405;28;8947;-77
2023/05/12 12:03:50;;;;;;;;;3.50;3.50;;;;;;;;5031130;28;8879;-77
2023/05/12 12:06:18;;;;;;;;;4.00;3.00;;;;;;;;5028717;28;8887;-77
2023/05/12 12:08:54;;;;;;;;;3.33;3.33;;;;;;;;5028339;28;8879;-77
2023/05/12 12:11:21;;;;;;;;;6.50;5.00;;;;;;;;5028463;28;8872;-77
2023/05/12 12:13:55;;;;;;;;;4.00;4.00;;;;;;;;5028464;28;9014;-77
2023/05/12 12:16:25;;;;;;;;;4.00;4.00;;;;;;;;5028201;28;9666;-77
2023/05/12 12:18:53;;;;;;;;;4.00;4.00;;;;;;;;5027853;28;8856;-77
2023/05/12 12:21:21;;;;;;;;;4.75;4.00;;;;;;;;5017718;28;8872;-77
2023/05/12 12:23:50;;;;;;;;;10.25;8.50;;;;;;;;5028530;28;8859;-78
2023/05/12 12:26:19;;;;;;;;;4.00;4.00;;;;;;;;5028468;28;8871;-78
2023/05/12 12:28:47;;;;;;;;;4.75;4.75;;;;;;;;5027623;28;8888;-78
2023/05/12 12:31:14;;;;;;;;;5.25;3.75;;;;;;;;5027864;28;8951;-78
2023/05/12 12:33:41;;;;;;;;;4.75;4.75;;;;;;;;5028110;28;8883;-78
2023/05/12 12:36:09;;;;;;;;;4.00;4.00;;;;;;;;5028466;28;8878;-77
2023/05/12 12:38:36;;;;;;;;;4.75;4.75;;;;;;;;5029023;28;9015;-77
2023/05/12 12:41:04;;;;;;;;;4.00;4.00;;;;;;;;5028899;28;8856;-77
2023/05/12 12:43:32;;;;;;;;;5.25;5.00;;;;;;;;5029382;28;8872;-77
2023/05/12 12:45:59;;;;;;;;;6.00;5.00;;;;;;;;5028375;28;8909;-77
2023/05/12 12:48:27;;;;;;;;;7.75;6.25;;;;;;;;5028215;28;8856;-77
2023/05/12 12:50:55;;;;;;;;;6.75;6.75;;;;;;;;5027410;28;8962;-77
2023/05/12 12:53:22;;;;;;;;;9.00;7.50;;;;;;;;5027565;28;8880;-77
2023/05/12 12:55:49;;;;;;;;;8.25;6.00;;;;;;;;5027240;28;8874;-77
2023/05/12 12:58:17;;;;;;;;;9.50;6.75;;;;;;;;5027402;28;8852;-77
2023/05/12 13:00:45;;;;;;;;;7.00;7.00;;;;;;;;5026654;28;8835;-76
2023/05/12 13:03:12;;;;;;;;;7.00;7.00;;;;;;;;5029329;28;8864;-76
2023/05/12 13:05:40;;;;;;;;;5.00;5.00;;;;;;;;5027712;28;8854;-77
2023/05/12 13:08:07;;;;;;;;;8.00;7.25;;;;;;;;5027339;28;9750;-77
2023/05/12 13:10:35;;;;;;;;;6.50;6.50;;;;;;;;5026930;28;8861;-77
2023/05/12 13:13:02;;;;;;;;;6.00;6.00;;;;;;;;5026633;28;9026;-77
2023/05/12 13:15:31;;;;;;;;;7.00;7.00;;;;;;;;5026676;28;8896;-77
2023/05/12 13:18:00;;;;;;;;;4.00;4.00;;;;;;;;5027157;28;8839;-77
2023/05/12 13:20:27;;;;;;;;;4.00;4.00;;;;;;;;5026960;28;8836;-77
2023/05/12 13:22:55;;;;;;;;;1.00;1.00;;;;;;;;5014813;28;9006;-77
2023/05/12 13:25:22;;;;;;;;;4.50;4.00;;;;;;;;5026870;28;8856;-77
2023/05/12 13:27:49;;;;;;;;;3.00;3.00;;;;;;;;5027111;28;8911;-77
2023/05/12 13:30:16;;;;;;;;;2.75;2.75;;;;;;;;5026030;28;9017;-76
2023/05/12 13:32:43;;;;;;;;;3.00;3.00;;;;;;;;5026800;28;8858;-77
2023/05/12 13:35:12;;;;;;;;;3.50;2.25;;;;;;;;5026837;28;9002;-76
2023/05/12 13:37:39;;;;;;;;;3.75;2.50;;;;;;;;5027114;28;8862;-77
2023/05/12 13:40:08;;;;;;;;;3.25;3.25;;;;;;;;5026591;28;8842;-77
2023/05/12 13:42:35;;;;;;;;;2.50;2.50;;;;;;;;5026935;28;8864;-77
2023/05/12 13:45:03;;;;;;;;;2.25;2.25;;;;;;;;5026844;28;9688;-77
2023/05/12 13:47:30;;;;;;;;;2.00;2.00;;;;;;;;5027279;28;8849;-77
2023/05/12 13:49:57;;;;;;;;;3.00;2.00;;;;;;;;5026389;28;8842;-77
2023/05/12 13:52:26;;;;;;;;;1.25;1.25;;;;;;;;5026960;28;9012;-77
2023/05/12 13:54:53;;;;;;;;;1.00;1.00;;;;;;;;5026173;28;9220;-76
2023/05/12 13:57:20;;;;;;;;;1.75;1.75;;;;;;;;5027407;28;8884;-77
2023/05/12 13:59:49;;;;;;;;;4.00;2.25;;;;;;;;5030367;28;8854;-77
2023/05/12 14:02:16;;;;;;;;;2.75;2.75;;;;;;;;5031010;28;8875;-77
2023/05/12 14:04:43;;;;;;;;;2.00;2.00;;;;;;;;5032230;28;9631;-77
2023/05/12 14:07:11;;;;;;;;;2.00;2.00;;;;;;;;5030997;28;9002;-77
2023/05/12 14:09:40;;;;;;;;;2.00;2.00;;;;;;;;5030424;28;8987;-77
2023/05/12 14:12:08;;;;;;;;;1.25;1.25;;;;;;;;5030827;28;9607;-78
2023/05/12 14:14:38;;;;;;;;;1.00;1.00;;;;;;;;5030800;28;9557;-78
2023/05/12 14:17:05;;;;;;;;;1.00;1.00;;;;;;;;5031617;28;8942;-78
2023/05/12 14:19:34;;;;;;;;;2.00;2.00;;;;;;;;5031043;28;8860;-77
2023/05/12 14:22:02;;;;;;;;;2.00;2.00;;;;;;;;5030728;28;8875;-76
2023/05/12 14:24:30;;;;;;;;;1.00;1.00;;;;;;;;5030125;28;8979;-77
2023/05/12 14:26:58;;;;;;;;;2.00;2.00;;;;;;;;5030855;28;8852;-77
2023/05/12 14:29:26;;;;;;;;;2.75;1.00;;;;;;;;5031249;28;8874;-77
2023/05/12 14:31:53;;;;;;;;;2.00;2.00;;;;;;;;5031022;28;8824;-78
2023/05/12 14:34:22;;;;;;;;;1.00;1.00;;;;;;;;5032500;28;8868;-76
2023/05/12 14:36:49;;;;;;;;;1.25;0.75;;;;;;;;5031287;28;8870;-78
2023/05/12 14:39:16;;;;;;;;;0.00;0.00;;;;;;;;5030754;28;8909;-78
2023/05/12 14:41:44;;;;;;;;;1.00;1.00;;;;;;;;5030069;28;8853;-77
2023/05/12 14:44:13;;;;;;;;;0.75;0.75;;;;;;;;5024437;28;8874;-77
2023/05/12 14:46:40;;;;;;;;;1.00;1.00;;;;;;;;5029893;28;8986;-77
2023/05/12 14:49:11;;;;;;;;;2.00;2.00;;;;;;;;5030352;28;8880;-78
2023/05/12 14:51:38;;;;;;;;;1.00;1.00;;;;;;;;5029787;28;8862;-77